sensor_id;sensor_type;location;lat;lon;timestamp;P1;durP1;ratioP1;P2;durP2;ratioP2
36303;SDS011;22335;49.800;8.596;2023-11-22T00:05:22;18.35;;;17.20;;
36303;SDS011;22335;49.800;8.596;2023-11-22T00:12:07;19.20;;;18.00;;
36303;SDS011;22335;49.800;8.596;2023-11-22T00:18:52;17.73;;;16.38;;
36303;SDS011;22335;49.800;8.596;2023-11-22T00:25:37;18.02;;;16.92;;
36303;SDS011;22335;49.800;8.596;2023-11-22T00:32:21;17.73;;;16.63;;
36303;SDS011;22335;49.800;8.596;2023-11-22T00:39:08;17.80;;;16.70;;
36303;SDS011;22335;49.800;8.596;2023-11-22T00:45:54;16.92;;;15.77;;
36303;SDS011;22335;49.800;8.596;2023-11-22T00:52:39;17.60;;;16.40;;
36303;SDS011;22335;49.800;8.596;2023-11-22T00:59:27;17.80;;;16.80;;
36303;SDS011;22335;49.800;8.596;2023-11-22T01:06:11;16.60;;;15.70;;
36303;SDS011;22335;49.800;8.596;2023-11-22T01:12:54;20.10;;;18.80;;
36303;SDS011;22335;49.800;8.596;2023-11-22T01:19:39;17.38;;;16.30;;
36303;SDS011;22335;49.800;8.596;2023-11-22T01:26:24;17.95;;;16.85;;
36303;SDS011;22335;49.800;8.596;2023-11-22T01:33:08;18.42;;;17.33;;
36303;SDS011;22335;49.800;8.596;2023-11-22T01:39:53;18.30;;;17.30;;
36303;SDS011;22335;49.800;8.596;2023-11-22T01:46:37;17.00;;;15.98;;
36303;SDS011;22335;49.800;8.596;2023-11-22T01:53:21;17.90;;;16.90;;
36303;SDS011;22335;49.800;8.596;2023-11-22T02:00:07;17.55;;;16.38;;
36303;SDS011;22335;49.800;8.596;2023-11-22T02:06:56;18.27;;;17.17;;
36303;SDS011;22335;49.800;8.596;2023-11-22T02:13:41;17.52;;;16.52;;
36303;SDS011;22335;49.800;8.596;2023-11-22T02:20:27;18.63;;;17.50;;
36303;SDS011;22335;49.800;8.596;2023-11-22T02:27:12;19.42;;;18.23;;
36303;SDS011;22335;49.800;8.596;2023-11-22T02:41:04;20.02;;;18.70;;
36303;SDS011;22335;49.800;8.596;2023-11-22T02:47:49;19.95;;;18.40;;
36303;SDS011;22335;49.800;8.596;2023-11-22T02:54:33;21.20;;;19.70;;
36303;SDS011;22335;49.800;8.596;2023-11-22T03:01:17;20.15;;;18.67;;
36303;SDS011;22335;49.800;8.596;2023-11-22T03:08:03;19.75;;;18.38;;
36303;SDS011;22335;49.800;8.596;2023-11-22T03:14:49;20.60;;;19.10;;
36303;SDS011;22335;49.800;8.596;2023-11-22T03:21:32;19.73;;;18.30;;
36303;SDS011;22335;49.800;8.596;2023-11-22T03:28:18;19.05;;;17.85;;
36303;SDS011;22335;49.800;8.596;2023-11-22T03:35:03;21.30;;;19.80;;
36303;SDS011;22335;49.800;8.596;2023-11-22T03:41:48;20.92;;;19.38;;
36303;SDS011;22335;49.800;8.596;2023-11-22T04:03:35;20.98;;;19.45;;
36303;SDS011;22335;49.800;8.596;2023-11-22T04:10:21;21.27;;;19.73;;
36303;SDS011;22335;49.800;8.596;2023-11-22T04:17:06;21.58;;;20.02;;
36303;SDS011;22335;49.800;8.596;2023-11-22T04:23:52;20.92;;;19.52;;
36303;SDS011;22335;49.800;8.596;2023-11-22T04:30:36;19.50;;;18.10;;
36303;SDS011;22335;49.800;8.596;2023-11-22T04:37:19;21.80;;;20.23;;
36303;SDS011;22335;49.800;8.596;2023-11-22T04:44:08;20.38;;;18.98;;
36303;SDS011;22335;49.800;8.596;2023-11-22T04:50:52;19.75;;;18.40;;
36303;SDS011;22335;49.800;8.596;2023-11-22T04:57:36;21.27;;;19.83;;
36303;SDS011;22335;49.800;8.596;2023-11-22T05:04:22;21.80;;;20.27;;
36303;SDS011;22335;49.800;8.596;2023-11-22T05:11:08;21.00;;;19.45;;
36303;SDS011;22335;49.800;8.596;2023-11-22T05:17:51;35.35;;;31.63;;
36303;SDS011;22335;49.800;8.596;2023-11-22T05:24:36;23.65;;;21.88;;
36303;SDS011;22335;49.800;8.596;2023-11-22T05:31:22;21.55;;;19.90;;
36303;SDS011;22335;49.800;8.596;2023-11-22T05:38:06;21.80;;;20.20;;
36303;SDS011;22335;49.800;8.596;2023-11-22T05:44:52;22.30;;;20.70;;
36303;SDS011;22335;49.800;8.596;2023-11-22T05:51:36;21.63;;;20.23;;
36303;SDS011;22335;49.800;8.596;2023-11-22T05:58:20;21.88;;;20.48;;
36303;SDS011;22335;49.800;8.596;2023-11-22T06:05:12;22.50;;;21.00;;
36303;SDS011;22335;49.800;8.596;2023-11-22T06:11:55;21.02;;;19.60;;
36303;SDS011;22335;49.800;8.596;2023-11-22T06:18:39;20.88;;;19.48;;
36303;SDS011;22335;49.800;8.596;2023-11-22T06:25:24;21.48;;;20.17;;
36303;SDS011;22335;49.800;8.596;2023-11-22T06:32:08;22.02;;;20.60;;
36303;SDS011;22335;49.800;8.596;2023-11-22T06:38:52;22.23;;;20.45;;
36303;SDS011;22335;49.800;8.596;2023-11-22T06:45:37;22.85;;;21.10;;
36303;SDS011;22335;49.800;8.596;2023-11-22T06:52:21;20.30;;;19.00;;
36303;SDS011;22335;49.800;8.596;2023-11-22T06:59:04;21.92;;;20.40;;
36303;SDS011;22335;49.800;8.596;2023-11-22T07:05:49;21.85;;;20.45;;
36303;SDS011;22335;49.800;8.596;2023-11-22T07:12:33;21.50;;;19.92;;
36303;SDS011;22335;49.800;8.596;2023-11-22T07:19:17;20.73;;;19.23;;
36303;SDS011;22335;49.800;8.596;2023-11-22T07:26:02;20.70;;;19.30;;
36303;SDS011;22335;49.800;8.596;2023-11-22T07:32:47;21.45;;;20.10;;
36303;SDS011;22335;49.800;8.596;2023-11-22T07:39:31;22.30;;;20.80;;
36303;SDS011;22335;49.800;8.596;2023-11-22T07:46:18;21.52;;;20.13;;
36303;SDS011;22335;49.800;8.596;2023-11-22T07:53:02;21.27;;;19.85;;
36303;SDS011;22335;49.800;8.596;2023-11-22T07:59:46;21.52;;;20.13;;
36303;SDS011;22335;49.800;8.596;2023-11-22T08:06:31;21.92;;;20.35;;
36303;SDS011;22335;49.800;8.596;2023-11-22T08:13:22;21.52;;;19.77;;
36303;SDS011;22335;49.800;8.596;2023-11-22T08:20:06;20.60;;;19.10;;
36303;SDS011;22335;49.800;8.596;2023-11-22T08:26:56;21.35;;;19.95;;
36303;SDS011;22335;49.800;8.596;2023-11-22T08:33:40;20.60;;;19.30;;
36303;SDS011;22335;49.800;8.596;2023-11-22T08:40:24;21.27;;;19.90;;
36303;SDS011;22335;49.800;8.596;2023-11-22T08:47:11;21.25;;;19.85;;
36303;SDS011;22335;49.800;8.596;2023-11-22T08:53:55;20.50;;;19.20;;
36303;SDS011;22335;49.800;8.596;2023-11-22T09:00:41;20.20;;;18.95;;
36303;SDS011;22335;49.800;8.596;2023-11-22T09:07:27;21.17;;;19.75;;
36303;SDS011;22335;49.800;8.596;2023-11-22T09:14:11;20.00;;;18.70;;
36303;SDS011;22335;49.800;8.596;2023-11-22T09:20:54;19.35;;;18.05;;
36303;SDS011;22335;49.800;8.596;2023-11-22T09:27:39;19.30;;;18.00;;
36303;SDS011;22335;49.800;8.596;2023-11-22T09:34:23;19.98;;;18.77;;
36303;SDS011;22335;49.800;8.596;2023-11-22T09:41:07;20.38;;;19.10;;
36303;SDS011;22335;49.800;8.596;2023-11-22T09:47:55;19.35;;;18.05;;
36303;SDS011;22335;49.800;8.596;2023-11-22T09:54:39;21.38;;;19.67;;
36303;SDS011;22335;49.800;8.596;2023-11-22T10:01:23;20.17;;;18.63;;
36303;SDS011;22335;49.800;8.596;2023-11-22T10:08:12;19.80;;;18.50;;
36303;SDS011;22335;49.800;8.596;2023-11-22T10:15:09;19.02;;;17.70;;
36303;SDS011;22335;49.800;8.596;2023-11-22T10:22:04;19.48;;;18.30;;
36303;SDS011;22335;49.800;8.596;2023-11-22T10:28:57;20.13;;;18.92;;
36303;SDS011;22335;49.800;8.596;2023-11-22T10:35:42;19.30;;;18.10;;
36303;SDS011;22335;49.800;8.596;2023-11-22T10:42:26;20.50;;;19.20;;
36303;SDS011;22335;49.800;8.596;2023-11-22T10:49:11;19.30;;;18.10;;
36303;SDS011;22335;49.800;8.596;2023-11-22T10:55:57;20.52;;;19.20;;
36303;SDS011;22335;49.800;8.596;2023-11-22T11:02:50;19.05;;;17.70;;
36303;SDS011;22335;49.800;8.596;2023-11-22T11:09:45;20.05;;;18.75;;
36303;SDS011;22335;49.800;8.596;2023-11-22T11:16:32;19.02;;;17.83;;
36303;SDS011;22335;49.800;8.596;2023-11-22T11:23:20;18.83;;;17.70;;
36303;SDS011;22335;49.800;8.596;2023-11-22T11:37:29;19.20;;;18.00;;
36303;SDS011;22335;49.800;8.596;2023-11-22T11:44:13;19.23;;;18.02;;
36303;SDS011;22335;49.800;8.596;2023-11-22T11:50:58;19.67;;;18.48;;
36303;SDS011;22335;49.800;8.596;2023-11-22T11:57:42;19.60;;;18.20;;
36303;SDS011;22335;49.800;8.596;2023-11-22T12:04:28;19.73;;;18.42;;
36303;SDS011;22335;49.800;8.596;2023-11-22T12:11:13;19.77;;;18.48;;
36303;SDS011;22335;49.800;8.596;2023-11-22T12:18:01;19.20;;;17.80;;
36303;SDS011;22335;49.800;8.596;2023-11-22T12:24:46;19.95;;;18.65;;
36303;SDS011;22335;49.800;8.596;2023-11-22T12:31:32;20.00;;;18.70;;
36303;SDS011;22335;49.800;8.596;2023-11-22T12:38:17;18.90;;;17.70;;
36303;SDS011;22335;49.800;8.596;2023-11-22T12:45:00;18.70;;;17.50;;
36303;SDS011;22335;49.800;8.596;2023-11-22T12:51:47;18.75;;;17.55;;
36303;SDS011;22335;49.800;8.596;2023-11-22T12:58:32;19.50;;;18.23;;
36303;SDS011;22335;49.800;8.596;2023-11-22T13:05:16;18.90;;;17.60;;
36303;SDS011;22335;49.800;8.596;2023-11-22T13:12:01;19.20;;;18.00;;
36303;SDS011;22335;49.800;8.596;2023-11-22T13:18:48;19.65;;;18.05;;
36303;SDS011;22335;49.800;8.596;2023-11-22T13:25:35;19.80;;;18.50;;
36303;SDS011;22335;49.800;8.596;2023-11-22T13:32:22;18.52;;;17.23;;
36303;SDS011;22335;49.800;8.596;2023-11-22T13:39:08;18.88;;;17.65;;
36303;SDS011;22335;49.800;8.596;2023-11-22T13:45:56;19.52;;;18.13;;
36303;SDS011;22335;49.800;8.596;2023-11-22T13:52:44;18.65;;;17.45;;
36303;SDS011;22335;49.800;8.596;2023-11-22T13:59:28;18.60;;;17.40;;
36303;SDS011;22335;49.800;8.596;2023-11-22T14:06:12;19.25;;;18.08;;
36303;SDS011;22335;49.800;8.596;2023-11-22T14:12:59;19.40;;;17.92;;
36303;SDS011;22335;49.800;8.596;2023-11-22T14:19:44;18.20;;;17.00;;
36303;SDS011;22335;49.800;8.596;2023-11-22T14:26:31;19.27;;;17.98;;
36303;SDS011;22335;49.800;8.596;2023-11-22T14:33:16;19.20;;;18.00;;
36303;SDS011;22335;49.800;8.596;2023-11-22T14:40:00;19.30;;;18.10;;
36303;SDS011;22335;49.800;8.596;2023-11-22T14:46:45;18.77;;;17.58;;
36303;SDS011;22335;49.800;8.596;2023-11-22T14:53:31;18.88;;;17.48;;
36303;SDS011;22335;49.800;8.596;2023-11-22T15:00:15;20.20;;;18.70;;
36303;SDS011;22335;49.800;8.596;2023-11-22T15:07:01;18.70;;;17.38;;
36303;SDS011;22335;49.800;8.596;2023-11-22T15:13:46;19.10;;;17.80;;
36303;SDS011;22335;49.800;8.596;2023-11-22T15:20:30;20.75;;;19.40;;
36303;SDS011;22335;49.800;8.596;2023-11-22T15:27:15;19.05;;;17.75;;
36303;SDS011;22335;49.800;8.596;2023-11-22T15:34:00;19.70;;;18.40;;
36303;SDS011;22335;49.800;8.596;2023-11-22T15:40:43;24.58;;;22.23;;
36303;SDS011;22335;49.800;8.596;2023-11-22T15:47:28;20.15;;;18.75;;
36303;SDS011;22335;49.800;8.596;2023-11-22T15:54:14;20.15;;;18.85;;
36303;SDS011;22335;49.800;8.596;2023-11-22T16:00:59;20.48;;;19.15;;
36303;SDS011;22335;49.800;8.596;2023-11-22T16:07:44;19.90;;;18.50;;
36303;SDS011;22335;49.800;8.596;2023-11-22T16:14:29;21.30;;;19.70;;
36303;SDS011;22335;49.800;8.596;2023-11-22T16:21:13;19.83;;;18.40;;
36303;SDS011;22335;49.800;8.596;2023-11-22T16:27:57;21.75;;;19.75;;
36303;SDS011;22335;49.800;8.596;2023-11-22T16:34:42;22.70;;;20.90;;
36303;SDS011;22335;49.800;8.596;2023-11-22T16:41:26;22.17;;;20.50;;
36303;SDS011;22335;49.800;8.596;2023-11-22T16:48:10;22.58;;;20.77;;
36303;SDS011;22335;49.800;8.596;2023-11-22T16:54:56;23.30;;;21.27;;
36303;SDS011;22335;49.800;8.596;2023-11-22T17:01:39;22.20;;;20.48;;
36303;SDS011;22335;49.800;8.596;2023-11-22T17:08:23;24.00;;;22.00;;
36303;SDS011;22335;49.800;8.596;2023-11-22T17:15:09;25.25;;;23.15;;
36303;SDS011;22335;49.800;8.596;2023-11-22T17:21:53;25.73;;;23.33;;
36303;SDS011;22335;49.800;8.596;2023-11-22T17:28:38;24.08;;;22.05;;
36303;SDS011;22335;49.800;8.596;2023-11-22T17:35:24;25.80;;;23.50;;
36303;SDS011;22335;49.800;8.596;2023-11-22T17:42:07;27.20;;;24.70;;
36303;SDS011;22335;49.800;8.596;2023-11-22T17:48:51;24.95;;;22.70;;
36303;SDS011;22335;49.800;8.596;2023-11-22T17:55:37;22.98;;;20.88;;
36303;SDS011;22335;49.800;8.596;2023-11-22T18:02:21;24.10;;;22.17;;
36303;SDS011;22335;49.800;8.596;2023-11-22T18:09:05;23.63;;;21.77;;
36303;SDS011;22335;49.800;8.596;2023-11-22T18:15:52;22.48;;;20.67;;
36303;SDS011;22335;49.800;8.596;2023-11-22T18:22:36;21.67;;;20.17;;
36303;SDS011;22335;49.800;8.596;2023-11-22T18:29:20;22.05;;;20.45;;
36303;SDS011;22335;49.800;8.596;2023-11-22T18:36:06;20.90;;;19.30;;
36303;SDS011;22335;49.800;8.596;2023-11-22T18:42:51;22.77;;;21.00;;
36303;SDS011;22335;49.800;8.596;2023-11-22T18:49:35;20.65;;;19.20;;
36303;SDS011;22335;49.800;8.596;2023-11-22T18:56:20;21.05;;;19.40;;
36303;SDS011;22335;49.800;8.596;2023-11-22T19:03:04;20.55;;;19.25;;
36303;SDS011;22335;49.800;8.596;2023-11-22T19:09:48;21.60;;;20.10;;
36303;SDS011;22335;49.800;8.596;2023-11-22T19:16:33;22.23;;;20.52;;
36303;SDS011;22335;49.800;8.596;2023-11-22T19:23:17;24.20;;;22.27;;
36303;SDS011;22335;49.800;8.596;2023-11-22T19:30:00;25.55;;;23.25;;
36303;SDS011;22335;49.800;8.596;2023-11-22T19:36:47;26.23;;;24.10;;
36303;SDS011;22335;49.800;8.596;2023-11-22T19:43:32;26.60;;;24.30;;
36303;SDS011;22335;49.800;8.596;2023-11-22T19:50:16;25.10;;;23.10;;
36303;SDS011;22335;49.800;8.596;2023-11-22T19:57:04;24.55;;;22.73;;
36303;SDS011;22335;49.800;8.596;2023-11-22T20:03:49;25.00;;;23.10;;
36303;SDS011;22335;49.800;8.596;2023-11-22T20:10:33;24.38;;;22.48;;
36303;SDS011;22335;49.800;8.596;2023-11-22T20:17:19;24.13;;;22.40;;
36303;SDS011;22335;49.800;8.596;2023-11-22T20:24:02;23.83;;;22.00;;
36303;SDS011;22335;49.800;8.596;2023-11-22T20:30:47;24.90;;;23.00;;
36303;SDS011;22335;49.800;8.596;2023-11-22T20:37:32;24.60;;;22.67;;
36303;SDS011;22335;49.800;8.596;2023-11-22T20:44:17;23.42;;;21.70;;
36303;SDS011;22335;49.800;8.596;2023-11-22T20:51:01;23.55;;;21.52;;
36303;SDS011;22335;49.800;8.596;2023-11-22T20:57:46;24.42;;;22.00;;
36303;SDS011;22335;49.800;8.596;2023-11-22T21:04:30;24.05;;;22.25;;
36303;SDS011;22335;49.800;8.596;2023-11-22T21:11:14;24.52;;;22.50;;
36303;SDS011;22335;49.800;8.596;2023-11-22T21:18:01;23.10;;;21.40;;
36303;SDS011;22335;49.800;8.596;2023-11-22T21:24:45;23.70;;;22.00;;
36303;SDS011;22335;49.800;8.596;2023-11-22T21:31:28;23.45;;;21.75;;
36303;SDS011;22335;49.800;8.596;2023-11-22T21:38:19;24.75;;;22.60;;
36303;SDS011;22335;49.800;8.596;2023-11-22T21:45:07;25.45;;;23.35;;
36303;SDS011;22335;49.800;8.596;2023-11-22T21:51:52;25.15;;;23.15;;
36303;SDS011;22335;49.800;8.596;2023-11-22T21:58:41;25.40;;;23.50;;
36303;SDS011;22335;49.800;8.596;2023-11-22T22:05:25;26.50;;;24.30;;
36303;SDS011;22335;49.800;8.596;2023-11-22T22:12:09;24.65;;;22.55;;
36303;SDS011;22335;49.800;8.596;2023-11-22T22:18:54;24.60;;;22.58;;
36303;SDS011;22335;49.800;8.596;2023-11-22T22:25:41;26.08;;;23.77;;
36303;SDS011;22335;49.800;8.596;2023-11-22T22:32:24;26.60;;;24.17;;
36303;SDS011;22335;49.800;8.596;2023-11-22T22:39:10;26.48;;;24.35;;
36303;SDS011;22335;49.800;8.596;2023-11-22T22:45:55;26.20;;;24.13;;
36303;SDS011;22335;49.800;8.596;2023-11-22T22:52:38;26.92;;;24.63;;
36303;SDS011;22335;49.800;8.596;2023-11-22T22:59:24;26.50;;;24.13;;
36303;SDS011;22335;49.800;8.596;2023-11-22T23:06:08;26.05;;;24.02;;
36303;SDS011;22335;49.800;8.596;2023-11-22T23:12:53;25.95;;;23.70;;
36303;SDS011;22335;49.800;8.596;2023-11-22T23:19:38;26.00;;;24.00;;
36303;SDS011;22335;49.800;8.596;2023-11-22T23:26:21;25.10;;;23.10;;
36303;SDS011;22335;49.800;8.596;2023-11-22T23:33:07;27.83;;;25.42;;
36303;SDS011;22335;49.800;8.596;2023-11-22T23:39:52;26.27;;;24.27;;
36303;SDS011;22335;49.800;8.596;2023-11-22T23:46:39;26.33;;;24.13;;
36303;SDS011;22335;49.800;8.596;2023-11-22T23:53:23;26.60;;;24.40;;
